Time;durP1;ratioP1;P1;durP2;ratioP2;P2;SDS_P1;SDS_P2;PMS_P1;PMS_P2;Temp;Humidity;BMP_temperature;BMP_pressure;BME280_temperature;BME280_humidity;BME280_pressure;Samples;Min_cycle;Max_cycle;Signal;HPM_P1;HPM_P2
2022/01/28 00:01:39;;;;;;;1.77;0.73;;;;;;;;;;5031771;28;20413;-63
2022/01/28 00:04:14;;;;;;;2.38;0.60;;;;;;;;;;5031578;28;20045;-64
2022/01/28 00:06:45;;;;;;;4.28;0.70;;;;;;;;;;5031405;28;20046;-63
2022/01/28 00:09:15;;;;;;;1.70;0.55;;;;;;;;;;5031603;28;20069;-63
2022/01/28 00:11:45;;;;;;;3.03;0.60;;;;;;;;;;5020437;28;20674;-63
2022/01/28 00:20:06;;;;;;;1.40;0.50;;;;;;;;;;5011703;28;20054;-63
2022/01/28 00:39:19;;;;;;;6.63;0.68;;;;;;;;;;4991599;28;20066;-64
2022/01/28 00:41:49;;;;;;;1.25;0.45;;;;;;;;;;4953542;28;20519;-64
2022/01/28 00:44:20;;;;;;;4.15;0.50;;;;;;;;;;4974745;28;20061;-65
2022/01/28 00:46:50;;;;;;;6.07;0.60;;;;;;;;;;4985645;28;20061;-64
2022/01/28 00:49:21;;;;;;;4.90;0.50;;;;;;;;;;5000085;28;20057;-65
2022/01/28 00:51:52;;;;;;;7.28;0.63;;;;;;;;;;5008799;28;20061;-65
2022/01/28 00:54:22;;;;;;;3.80;0.75;;;;;;;;;;4993594;28;20049;-65
2022/01/28 00:56:53;;;;;;;2.67;0.55;;;;;;;;;;4994500;28;20206;-65
2022/01/28 00:59:23;;;;;;;4.38;0.70;;;;;;;;;;5011061;28;20525;-66
2022/01/28 01:01:53;;;;;;;1.63;0.52;;;;;;;;;;4994177;28;20422;-65
2022/01/28 01:04:24;;;;;;;1.48;0.73;;;;;;;;;;4978162;28;20061;-65
2022/01/28 01:06:55;;;;;;;4.50;1.00;;;;;;;;;;5010813;28;20080;-65
2022/01/28 01:09:25;;;;;;;5.38;1.02;;;;;;;;;;5010601;28;20057;-65
2022/01/28 01:11:56;;;;;;;4.07;1.45;;;;;;;;;;4994850;28;20072;-65
2022/01/28 01:14:27;;;;;;;2.92;0.98;;;;;;;;;;5010774;28;20057;-64
2022/01/28 01:19:32;;;;;;;4.72;1.00;;;;;;;;;;5070345;28;20056;-65
2022/01/28 01:22:03;;;;;;;2.95;1.20;;;;;;;;;;5021437;28;20082;-65
2022/01/28 01:24:37;;;;;;;4.75;1.30;;;;;;;;;;5070354;28;20040;-65
2022/01/28 01:27:07;;;;;;;6.03;1.50;;;;;;;;;;5019964;28;20049;-66
2022/01/28 01:29:42;;;;;;;2.70;0.98;;;;;;;;;;5005119;28;20053;-66
2022/01/28 01:32:15;;;;;;;4.22;1.00;;;;;;;;;;4974303;28;20511;-66
2022/01/28 01:34:47;;;;;;;5.18;1.30;;;;;;;;;;5070060;28;20052;-66
2022/01/28 01:37:19;;;;;;;2.35;1.00;;;;;;;;;;5069693;28;20060;-65
2022/01/28 01:39:51;;;;;;;2.95;0.90;;;;;;;;;;5020082;28;20052;-65
2022/01/28 01:42:35;;;;;;;3.35;0.73;;;;;;;;;;5036850;28;20083;-66
2022/01/28 01:45:45;;;;;;;5.63;0.90;;;;;;;;;;5069107;28;20056;-65
2022/01/28 01:53:41;;;;;;;4.70;1.40;;;;;;;;;;5073222;28;20416;-65
2022/01/28 01:56:13;;;;;;;3.20;1.27;;;;;;;;;;5091920;28;20419;-66
2022/01/28 01:58:43;;;;;;;1.77;0.70;;;;;;;;;;5089455;28;20063;-65
2022/01/28 02:01:14;;;;;;;2.00;1.10;;;;;;;;;;5089637;28;20393;-65
2022/01/28 02:03:44;;;;;;;5.68;0.82;;;;;;;;;;5055860;28;20056;-65
2022/01/28 02:06:19;;;;;;;4.97;0.73;;;;;;;;;;5089487;28;20110;-65
2022/01/28 02:08:51;;;;;;;3.45;0.70;;;;;;;;;;5039787;28;20056;-65
2022/01/28 02:11:21;;;;;;;2.10;1.40;;;;;;;;;;5056149;28;20067;-66
2022/01/28 02:13:52;;;;;;;2.40;0.93;;;;;;;;;;5089527;28;20503;-66
2022/01/28 02:16:23;;;;;;;8.25;1.42;;;;;;;;;;5089427;28;20056;-65
2022/01/28 02:18:55;;;;;;;4.68;0.90;;;;;;;;;;5089091;28;20044;-65
2022/01/28 02:21:26;;;;;;;6.63;1.10;;;;;;;;;;5089440;28;20044;-65
2022/01/28 02:24:01;;;;;;;3.20;1.10;;;;;;;;;;5056306;28;20056;-66
2022/01/28 02:26:31;;;;;;;4.80;0.90;;;;;;;;;;5072483;28;20052;-67
2022/01/28 02:29:08;;;;;;;3.95;0.90;;;;;;;;;;5088723;28;20056;-66
2022/01/28 02:31:40;;;;;;;5.35;0.90;;;;;;;;;;5089643;28;20412;-66
2022/01/28 02:34:13;;;;;;;3.67;0.80;;;;;;;;;;5088967;28;20051;-67
2022/01/28 02:36:43;;;;;;;1.92;0.70;;;;;;;;;;5068270;28;20049;-66
2022/01/28 02:39:13;;;;;;;6.00;0.82;;;;;;;;;;5048567;28;20060;-68
2022/01/28 02:41:48;;;;;;;5.78;0.80;;;;;;;;;;5048806;28;20049;-66
2022/01/28 02:44:45;;;;;;;4.80;1.00;;;;;;;;;;5048505;28;20061;-66
2022/01/28 02:47:28;;;;;;;3.92;1.10;;;;;;;;;;5032192;28;20056;-66
2022/01/28 02:49:59;;;;;;;4.75;1.17;;;;;;;;;;5068376;28;20045;-66
2022/01/28 02:52:37;;;;;;;4.68;1.13;;;;;;;;;;5068179;28;20400;-67
2022/01/28 02:55:11;;;;;;;8.70;1.85;;;;;;;;;;5068816;28;20099;-65
2022/01/28 02:57:52;;;;;;;4.38;1.50;;;;;;;;;;5067920;28;20475;-66
2022/01/28 03:00:22;;;;;;;2.35;0.70;;;;;;;;;;5068504;28;20790;-66
2022/01/28 03:02:53;;;;;;;4.10;0.85;;;;;;;;;;5018058;28;20451;-66
2022/01/28 03:05:34;;;;;;;4.10;1.05;;;;;;;;;;5068305;28;20075;-66
2022/01/28 03:08:05;;;;;;;8.07;1.63;;;;;;;;;;5068008;28;20064;-67
2022/01/28 03:14:14;;;;;;;5.80;0.95;;;;;;;;;;4984436;28;20055;-65
2022/01/28 03:17:15;;;;;;;2.47;0.80;;;;;;;;;;4969413;28;20054;-67
2022/01/28 03:19:51;;;;;;;1.67;0.60;;;;;;;;;;4953833;28;20069;-66
2022/01/28 03:22:24;;;;;;;0.95;0.60;;;;;;;;;;4991868;28;20061;-65
2022/01/28 03:24:58;;;;;;;4.10;0.60;;;;;;;;;;4976066;28;20057;-66
2022/01/28 03:27:50;;;;;;;2.53;0.75;;;;;;;;;;4992500;28;21080;-65
2022/01/28 03:30:21;;;;;;;5.90;0.70;;;;;;;;;;5008444;28;20050;-66
2022/01/28 03:32:51;;;;;;;4.78;0.68;;;;;;;;;;5008396;28;20098;-66
2022/01/28 03:35:34;;;;;;;4.97;0.70;;;;;;;;;;5008474;28;20055;-67
2022/01/28 03:38:11;;;;;;;3.85;0.80;;;;;;;;;;4989062;28;20058;-66
2022/01/28 03:40:42;;;;;;;3.03;0.60;;;;;;;;;;4991961;28;20061;-66
2022/01/28 03:43:13;;;;;;;3.42;0.57;;;;;;;;;;5008197;28;20151;-66
2022/01/28 03:45:43;;;;;;;3.10;0.60;;;;;;;;;;5065024;28;20063;-66
2022/01/28 03:48:13;;;;;;;4.00;0.90;;;;;;;;;;5018650;28;20068;-67
2022/01/28 03:50:43;;;;;;;3.88;0.57;;;;;;;;;;5068485;28;20056;-66
2022/01/28 03:53:13;;;;;;;5.47;0.57;;;;;;;;;;5067798;28;20548;-66
2022/01/28 03:55:45;;;;;;;1.85;0.75;;;;;;;;;;5067896;28;20057;-66
2022/01/28 03:58:15;;;;;;;3.65;0.50;;;;;;;;;;5067785;28;20112;-67
2022/01/28 04:00:46;;;;;;;2.08;0.80;;;;;;;;;;5068010;28;20056;-66
2022/01/28 04:11:36;;;;;;;1.88;0.40;;;;;;;;;;5071610;28;20045;-67
2022/01/28 04:14:14;;;;;;;2.08;0.60;;;;;;;;;;5071622;28;20049;-66
2022/01/28 04:19:34;;;;;;;1.55;0.43;;;;;;;;;;5094076;28;20040;-66
2022/01/28 04:22:05;;;;;;;5.40;0.50;;;;;;;;;;5021577;28;20063;-66
2022/01/28 04:24:35;;;;;;;5.13;1.40;;;;;;;;;;5071304;28;20084;-66
2022/01/28 04:27:06;;;;;;;3.50;0.70;;;;;;;;;;5020568;28;20057;-66
2022/01/28 04:29:36;;;;;;;4.60;0.50;;;;;;;;;;5021622;28;20060;-66
2022/01/28 04:32:07;;;;;;;2.38;0.60;;;;;;;;;;5070941;28;20060;-66
2022/01/28 04:34:38;;;;;;;4.75;0.65;;;;;;;;;;5022483;28;20055;-66
2022/01/28 04:40:15;;;;;;;6.97;0.70;;;;;;;;;;5070954;28;20049;-66
2022/01/28 04:45:38;;;;;;;3.80;0.57;;;;;;;;;;5070766;28;20056;-66
2022/01/28 04:48:27;;;;;;;2.63;0.43;;;;;;;;;;5037245;28;20091;-66
2022/01/28 04:51:20;;;;;;;7.45;0.85;;;;;;;;;;5021030;28;20053;-66
2022/01/28 05:02:19;;;;;;;1.77;0.52;;;;;;;;;;5011054;28;20065;-66
2022/01/28 05:07:45;;;;;;;3.42;0.52;;;;;;;;;;5050646;28;20448;-66
2022/01/28 05:27:05;;;;;;;2.42;0.68;;;;;;;;;;4932697;29;20540;-66
2022/01/28 05:29:36;;;;;;;5.25;0.50;;;;;;;;;;4917071;29;20433;-66
2022/01/28 05:32:07;;;;;;;3.40;0.50;;;;;;;;;;4932988;29;20385;-67
2022/01/28 05:34:39;;;;;;;7.05;0.50;;;;;;;;;;4910211;29;20571;-66
2022/01/28 05:37:10;;;;;;;1.67;0.70;;;;;;;;;;4913807;29;20540;-66
2022/01/28 05:39:40;;;;;;;3.20;0.60;;;;;;;;;;4852155;29;20424;-66
2022/01/28 05:42:10;;;;;;;1.52;0.43;;;;;;;;;;4837136;29;20406;-66
2022/01/28 05:44:40;;;;;;;4.43;0.52;;;;;;;;;;4898148;29;20489;-66
2022/01/28 05:47:15;;;;;;;7.55;0.47;;;;;;;;;;4913600;29;20060;-65
2022/01/28 05:49:45;;;;;;;4.25;0.40;;;;;;;;;;4866611;29;20056;-66
2022/01/28 05:52:16;;;;;;;2.63;0.40;;;;;;;;;;4898009;29;20056;-65
2022/01/28 05:54:46;;;;;;;3.33;0.57;;;;;;;;;;4913393;29;20076;-66
2022/01/28 05:57:16;;;;;;;1.85;0.60;;;;;;;;;;4908030;28;20050;-67
2022/01/28 05:59:46;;;;;;;5.03;0.60;;;;;;;;;;4990312;28;20504;-67
2022/01/28 06:02:18;;;;;;;2.80;0.50;;;;;;;;;;5032932;28;20068;-65
2022/01/28 06:04:49;;;;;;;2.00;0.40;;;;;;;;;;5049072;28;20531;-66
2022/01/28 06:07:21;;;;;;;1.40;0.40;;;;;;;;;;5049362;28;20059;-65
2022/01/28 06:09:51;;;;;;;;;;;;;;;;;;5033425;28;20091;-65
2022/01/28 06:12:20;;;;;;;3.88;0.60;;;;;;;;;;5073082;28;19920;-65
2022/01/28 06:14:51;;;;;;;7.20;0.70;;;;;;;;;;5091663;28;20036;-65
2022/01/28 06:17:21;;;;;;;7.80;0.68;;;;;;;;;;5091735;28;20499;-66
2022/01/28 06:19:51;;;;;;;5.32;0.75;;;;;;;;;;5056380;28;20080;-67
2022/01/28 06:22:21;;;;;;;4.43;0.68;;;;;;;;;;5089258;28;20082;-66
2022/01/28 06:24:51;;;;;;;5.43;1.15;;;;;;;;;;5090406;28;20496;-65
2022/01/28 06:27:22;;;;;;;4.40;0.93;;;;;;;;;;5091679;28;20071;-65
2022/01/28 06:29:53;;;;;;;2.00;0.50;;;;;;;;;;5091588;28;20066;-66
2022/01/28 06:32:23;;;;;;;4.75;0.70;;;;;;;;;;5072203;28;20052;-66
2022/01/28 06:34:53;;;;;;;4.47;0.50;;;;;;;;;;5055093;28;20040;-66
2022/01/28 06:37:24;;;;;;;1.55;0.60;;;;;;;;;;5088572;28;20435;-66
2022/01/28 06:39:54;;;;;;;4.03;0.77;;;;;;;;;;5055428;28;20048;-65
2022/01/28 06:42:24;;;;;;;5.47;0.70;;;;;;;;;;5071819;28;20051;-66
2022/01/28 06:44:54;;;;;;;5.00;0.75;;;;;;;;;;5088662;28;20047;-66
2022/01/28 06:47:26;;;;;;;1.67;0.52;;;;;;;;;;5038822;28;20056;-66
2022/01/28 06:49:56;;;;;;;9.02;1.13;;;;;;;;;;5068389;28;20052;-66
2022/01/28 06:52:26;;;;;;;10.65;0.80;;;;;;;;;;5068703;28;20412;-65
2022/01/28 06:54:56;;;;;;;2.42;0.57;;;;;;;;;;5068396;28;20439;-66
2022/01/28 06:57:28;;;;;;;4.85;0.95;;;;;;;;;;5051926;28;20435;-66
2022/01/28 06:59:59;;;;;;;2.22;0.63;;;;;;;;;;5068359;28;20056;-66
2022/01/28 07:02:29;;;;;;;6.40;0.85;;;;;;;;;;5068384;28;20051;-67
2022/01/28 07:05:00;;;;;;;7.72;0.70;;;;;;;;;;5052054;28;20091;-67
2022/01/28 07:07:30;;;;;;;7.85;0.60;;;;;;;;;;5018807;28;20071;-66
2022/01/28 07:10:01;;;;;;;5.97;0.47;;;;;;;;;;5068306;28;20496;-66
2022/01/28 07:12:31;;;;;;;2.05;0.43;;;;;;;;;;5068206;28;20563;-66
2022/01/28 07:15:01;;;;;;;5.07;1.00;;;;;;;;;;5068461;28;20501;-66
2022/01/28 07:17:31;;;;;;;9.88;0.52;;;;;;;;;;5068511;28;20040;-66
2022/01/28 07:20:02;;;;;;;7.28;0.63;;;;;;;;;;5068214;28;20051;-66
2022/01/28 07:22:32;;;;;;;1.10;0.40;;;;;;;;;;5051398;28;20052;-67
2022/01/28 07:25:03;;;;;;;3.30;0.50;;;;;;;;;;5068400;28;20060;-66
2022/01/28 07:27:33;;;;;;;3.58;0.70;;;;;;;;;;5051640;28;20056;-66
2022/01/28 07:30:05;;;;;;;3.78;0.70;;;;;;;;;;5071628;28;20056;-66
2022/01/28 07:32:36;;;;;;;6.10;0.80;;;;;;;;;;5071684;28;20055;-66
2022/01/28 07:35:12;;;;;;;4.85;0.82;;;;;;;;;;5090700;28;20044;-66
2022/01/28 07:37:42;;;;;;;1.25;0.45;;;;;;;;;;5090791;28;20408;-66
2022/01/28 07:40:13;;;;;;;5.93;1.05;;;;;;;;;;5090648;28;20039;-66
2022/01/28 07:42:44;;;;;;;4.80;0.68;;;;;;;;;;5091216;28;20040;-66
2022/01/28 07:45:15;;;;;;;4.13;0.65;;;;;;;;;;5092271;28;20059;-66
2022/01/28 07:47:45;;;;;;;4.88;0.65;;;;;;;;;;5092011;28;20428;-66
2022/01/28 07:50:15;;;;;;;3.58;0.68;;;;;;;;;;5058663;28;20063;-67
2022/01/28 07:52:46;;;;;;;2.95;0.50;;;;;;;;;;5092020;28;20048;-66
2022/01/28 07:55:16;;;;;;;2.72;0.70;;;;;;;;;;5025716;28;20067;-67
2022/01/28 07:57:46;;;;;;;1.40;0.40;;;;;;;;;;5092295;28;20471;-66
2022/01/28 08:00:17;;;;;;;1.20;0.60;;;;;;;;;;5092067;28;20052;-67
2022/01/28 08:02:47;;;;;;;3.50;0.85;;;;;;;;;;5091801;28;20511;-66
2022/01/28 08:05:18;;;;;;;3.42;0.60;;;;;;;;;;5091967;28;20040;-66
2022/01/28 08:07:48;;;;;;;3.20;0.45;;;;;;;;;;5092106;28;20051;-67
2022/01/28 08:10:19;;;;;;;2.88;0.70;;;;;;;;;;5091881;28;20062;-66
2022/01/28 08:12:52;;;;;;;3.65;0.63;;;;;;;;;;5070978;28;20064;-65
2022/01/28 08:15:23;;;;;;;2.92;0.68;;;;;;;;;;5071362;28;20149;-66
2022/01/28 08:17:53;;;;;;;6.60;0.60;;;;;;;;;;5071308;28;20090;-66
2022/01/28 08:20:23;;;;;;;5.50;0.90;;;;;;;;;;5022579;28;20048;-66
2022/01/28 08:22:58;;;;;;;3.67;0.70;;;;;;;;;;5070874;28;20164;-67
2022/01/28 08:25:34;;;;;;;6.13;0.68;;;;;;;;;;5071337;28;20443;-67
2022/01/28 08:28:05;;;;;;;2.67;0.50;;;;;;;;;;5071105;28;20520;-67
2022/01/28 08:30:38;;;;;;;4.03;0.57;;;;;;;;;;5050839;28;20056;-67
2022/01/28 08:33:08;;;;;;;4.47;0.80;;;;;;;;;;5001543;28;20053;-66
2022/01/28 08:35:40;;;;;;;5.10;0.90;;;;;;;;;;5051124;28;20049;-67
2022/01/28 08:38:14;;;;;;;3.90;0.75;;;;;;;;;;5011096;28;20050;-68
2022/01/28 08:40:45;;;;;;;6.30;0.93;;;;;;;;;;5011302;28;20433;-66
2022/01/28 08:43:15;;;;;;;4.18;0.73;;;;;;;;;;4962200;28;20496;-66
2022/01/28 08:45:45;;;;;;;8.30;0.85;;;;;;;;;;4962787;28;20077;-67
2022/01/28 08:48:16;;;;;;;7.95;1.05;;;;;;;;;;5011132;28;20058;-67
2022/01/28 08:50:47;;;;;;;2.50;0.70;;;;;;;;;;5011019;28;20081;-67
2022/01/28 08:53:17;;;;;;;2.72;0.70;;;;;;;;;;5010858;28;20521;-67
2022/01/28 08:55:47;;;;;;;4.20;0.90;;;;;;;;;;5011188;28;20062;-67
2022/01/28 08:58:24;;;;;;;3.05;0.73;;;;;;;;;;5011186;28;20058;-67
2022/01/28 09:00:54;;;;;;;4.63;0.90;;;;;;;;;;5037634;28;20045;-66
2022/01/28 09:03:32;;;;;;;4.18;0.88;;;;;;;;;;5019759;28;20057;-67
2022/01/28 09:06:03;;;;;;;2.47;0.70;;;;;;;;;;5033929;28;20048;-66
2022/01/28 09:08:33;;;;;;;3.15;0.90;;;;;;;;;;5059501;28;20468;-67
2022/01/28 09:13:53;;;;;;;5.50;3.72;;;;;;;;;;5068413;28;20048;-67
2022/01/28 09:16:23;;;;;;;2.80;1.20;;;;;;;;;;4995418;28;20060;-66
2022/01/28 09:18:55;;;;;;;5.45;0.90;;;;;;;;;;5049562;28;20184;-66
2022/01/28 09:21:26;;;;;;;2.17;1.00;;;;;;;;;;5051683;28;20056;-67
2022/01/28 09:23:56;;;;;;;7.43;1.13;;;;;;;;;;5048041;28;20509;-67
2022/01/28 09:26:28;;;;;;;5.95;0.93;;;;;;;;;;5047777;28;20060;-66
2022/01/28 09:28:59;;;;;;;2.28;0.88;;;;;;;;;;5049883;28;20468;-66
2022/01/28 09:31:35;;;;;;;7.57;1.00;;;;;;;;;;5003236;28;20057;-66
2022/01/28 09:34:06;;;;;;;8.57;1.58;;;;;;;;;;5003698;28;20533;-66
2022/01/28 09:36:36;;;;;;;6.65;0.90;;;;;;;;;;5018290;28;20053;-67
2022/01/28 09:39:07;;;;;;;4.93;0.70;;;;;;;;;;5019090;28;20077;-66
2022/01/28 09:41:37;;;;;;;6.03;0.80;;;;;;;;;;4962869;28;20058;-67
2022/01/28 09:44:10;;;;;;;2.63;0.75;;;;;;;;;;5010058;28;20069;-66
2022/01/28 09:46:40;;;;;;;6.68;0.95;;;;;;;;;;4970543;28;20058;-68
2022/01/28 09:49:12;;;;;;;7.25;0.93;;;;;;;;;;4970986;28;20085;-66
2022/01/28 09:51:43;;;;;;;3.38;0.80;;;;;;;;;;4938617;28;20078;-67
2022/01/28 09:54:13;;;;;;;1.55;0.73;;;;;;;;;;4933924;28;20479;-66
2022/01/28 09:56:44;;;;;;;2.17;0.90;;;;;;;;;;4990258;28;20077;-67
2022/01/28 09:59:14;;;;;;;4.32;0.90;;;;;;;;;;4942054;28;20066;-66
2022/01/28 10:01:48;;;;;;;3.92;0.90;;;;;;;;;;4941914;28;21070;-67
2022/01/28 10:04:20;;;;;;;5.10;1.10;;;;;;;;;;4978837;28;20060;-66
2022/01/28 10:06:50;;;;;;;4.35;0.93;;;;;;;;;;4969775;28;20051;-68
2022/01/28 10:09:23;;;;;;;6.68;0.80;;;;;;;;;;4951267;28;20447;-66
2022/01/28 10:11:57;;;;;;;5.30;0.98;;;;;;;;;;5000459;28;20050;-66
2022/01/28 10:14:28;;;;;;;1.40;0.70;;;;;;;;;;4976928;28;20058;-67
2022/01/28 10:17:02;;;;;;;7.70;0.77;;;;;;;;;;5015014;28;20064;-67
2022/01/28 10:19:40;;;;;;;4.45;0.93;;;;;;;;;;5016272;28;20057;-67
2022/01/28 10:22:20;;;;;;;2.00;0.60;;;;;;;;;;5035740;28;20053;-67
2022/01/28 10:25:27;;;;;;;3.00;0.70;;;;;;;;;;5048944;28;20405;-66
2022/01/28 10:28:05;;;;;;;7.72;1.17;;;;;;;;;;5048795;28;20060;-66
2022/01/28 10:30:40;;;;;;;3.22;0.70;;;;;;;;;;5015717;28;20065;-66
2022/01/28 10:33:11;;;;;;;10.77;0.70;;;;;;;;;;5048996;28;20408;-66
2022/01/28 10:35:55;;;;;;;6.32;0.80;;;;;;;;;;5048761;28;20049;-67
2022/01/28 10:38:43;;;;;;;1.98;0.82;;;;;;;;;;5048790;28;20516;-67
2022/01/28 10:41:23;;;;;;;4.38;0.75;;;;;;;;;;5048579;28;20088;-67
2022/01/28 10:43:58;;;;;;;10.75;1.00;;;;;;;;;;4999899;28;20071;-67
2022/01/28 10:46:35;;;;;;;6.40;0.75;;;;;;;;;;5008569;28;20548;-67
2022/01/28 10:49:08;;;;;;;7.00;0.82;;;;;;;;;;4970262;28;20077;-68
2022/01/28 10:51:49;;;;;;;3.35;1.00;;;;;;;;;;4973608;28;20078;-67
2022/01/28 10:54:22;;;;;;;6.25;0.82;;;;;;;;;;4989007;28;20054;-67
2022/01/28 10:56:58;;;;;;;2.70;1.00;;;;;;;;;;4940928;28;20054;-67
2022/01/28 10:59:37;;;;;;;8.68;1.42;;;;;;;;;;5010799;28;20436;-67
2022/01/28 11:02:08;;;;;;;6.50;1.33;;;;;;;;;;5032361;28;20632;-66
2022/01/28 11:04:40;;;;;;;2.60;1.23;;;;;;;;;;5048140;28;20417;-68
2022/01/28 11:07:11;;;;;;;5.88;1.83;;;;;;;;;;5032095;28;20524;-67
2022/01/28 11:09:41;;;;;;;7.00;3.03;;;;;;;;;;5048192;28;20523;-68
2022/01/28 11:12:12;;;;;;;6.65;2.30;;;;;;;;;;5011759;28;20042;-66
2022/01/28 11:14:43;;;;;;;6.97;1.77;;;;;;;;;;5028336;28;20065;-67
2022/01/28 11:17:17;;;;;;;2.78;1.13;;;;;;;;;;4986901;28;20052;-68
2022/01/28 11:19:49;;;;;;;5.28;1.23;;;;;;;;;;4999039;28;20167;-65
2022/01/28 11:22:54;;;;;;;4.22;1.10;;;;;;;;;;5015375;28;20056;-67
2022/01/28 11:25:43;;;;;;;4.05;1.13;;;;;;;;;;4972228;28;20050;-66
2022/01/28 11:28:16;;;;;;;5.60;0.98;;;;;;;;;;5008363;28;20053;-66
2022/01/28 11:30:51;;;;;;;2.40;1.00;;;;;;;;;;4985259;28;20058;-66
2022/01/28 11:33:51;;;;;;;3.83;1.00;;;;;;;;;;4949977;28;20056;-65
2022/01/28 11:36:36;;;;;;;4.88;1.00;;;;;;;;;;4930536;29;20059;-66
2022/01/28 11:39:19;;;;;;;5.07;1.20;;;;;;;;;;4930769;29;20063;-65
2022/01/28 11:42:01;;;;;;;4.70;1.08;;;;;;;;;;4930663;29;20540;-66
2022/01/28 11:44:41;;;;;;;2.05;0.90;;;;;;;;;;4930762;29;20056;-66
2022/01/28 11:47:20;;;;;;;2.28;0.80;;;;;;;;;;4930713;29;20060;-66
2022/01/28 11:49:57;;;;;;;2.58;1.10;;;;;;;;;;4949129;28;20506;-67
2022/01/28 11:52:33;;;;;;;8.63;1.23;;;;;;;;;;4968831;28;20055;-68
2022/01/28 11:55:33;;;;;;;8.77;1.30;;;;;;;;;;4969808;28;20047;-69
2022/01/28 11:58:08;;;;;;;5.13;1.10;;;;;;;;;;4909061;29;20052;-70
2022/01/28 12:00:54;;;;;;;1.92;1.00;;;;;;;;;;4892570;29;20064;-71
2022/01/28 12:03:28;;;;;;;4.00;1.23;;;;;;;;;;4882577;29;20065;-70
2022/01/28 12:06:07;;;;;;;4.35;1.10;;;;;;;;;;4874336;29;20064;-69
2022/01/28 12:08:40;;;;;;;4.13;1.23;;;;;;;;;;4891900;29;20072;-71
2022/01/28 12:11:13;;;;;;;2.75;0.93;;;;;;;;;;4876997;29;20433;-71
2022/01/28 12:14:04;;;;;;;4.63;1.30;;;;;;;;;;4882078;29;20052;-70
2022/01/28 12:16:40;;;;;;;4.78;1.00;;;;;;;;;;4932274;29;20094;-70
2022/01/28 12:19:22;;;;;;;6.00;1.17;;;;;;;;;;4950021;29;20078;-74
2022/01/28 12:22:11;;;;;;;7.32;1.85;;;;;;;;;;4949443;29;20059;-70
2022/01/28 12:24:41;;;;;;;3.42;1.27;;;;;;;;;;4949757;29;20055;-72
2022/01/28 12:27:13;;;;;;;7.03;1.90;;;;;;;;;;4949653;29;20067;-75
2022/01/28 12:29:52;;;;;;;6.38;1.80;;;;;;;;;;4971008;28;20205;-71
2022/01/28 12:32:25;;;;;;;5.82;1.80;;;;;;;;;;4979232;28;20058;-71
2022/01/28 12:35:03;;;;;;;5.18;1.55;;;;;;;;;;4999271;28;20468;-69
2022/01/28 12:37:42;;;;;;;4.57;2.03;;;;;;;;;;5051398;28;20041;-68
2022/01/28 12:40:24;;;;;;;6.22;1.88;;;;;;;;;;5021266;28;20061;-70
2022/01/28 12:42:54;;;;;;;7.28;1.77;;;;;;;;;;5017675;28;20049;-72
2022/01/28 12:45:25;;;;;;;5.13;2.15;;;;;;;;;;5070624;28;20053;-74
2022/01/28 12:47:55;;;;;;;6.97;3.67;;;;;;;;;;5050535;28;20048;-74
2022/01/28 12:50:28;;;;;;;5.00;3.13;;;;;;;;;;4994225;28;20076;-73
2022/01/28 12:53:02;;;;;;;6.78;3.97;;;;;;;;;;5011127;28;20086;-73
2022/01/28 12:55:33;;;;;;;6.80;2.40;;;;;;;;;;4990939;28;20065;-69
2022/01/28 12:58:03;;;;;;;5.55;2.75;;;;;;;;;;4973022;28;20054;-71
2022/01/28 13:00:33;;;;;;;6.43;1.90;;;;;;;;;;4971498;28;20066;-69
2022/01/28 13:03:04;;;;;;;4.88;2.28;;;;;;;;;;4971915;28;20055;-66
2022/01/28 13:05:37;;;;;;;5.80;2.53;;;;;;;;;;4972028;28;20760;-66
2022/01/28 13:08:27;;;;;;;13.00;3.30;;;;;;;;;;4971982;28;20051;-67
2022/01/28 13:10:57;;;;;;;139.52;85.97;;;;;;;;;;4975251;28;20414;-65
2022/01/28 13:13:27;;;;;;;19.23;9.20;;;;;;;;;;4997666;28;20061;-66
2022/01/28 13:15:58;;;;;;;26.40;16.05;;;;;;;;;;5010756;28;20070;-66
2022/01/28 13:18:28;;;;;;;5.65;2.38;;;;;;;;;;4994781;28;20050;-64
2022/01/28 13:20:59;;;;;;;8.95;2.55;;;;;;;;;;5010657;28;20062;-65
2022/01/28 13:23:34;;;;;;;10.95;4.82;;;;;;;;;;5003763;28;20065;-65
2022/01/28 13:26:06;;;;;;;8.15;3.63;;;;;;;;;;5007068;28;20059;-65
2022/01/28 13:28:36;;;;;;;6.18;2.20;;;;;;;;;;4999277;28;20069;-65
2022/01/28 13:31:07;;;;;;;6.00;2.80;;;;;;;;;;4993965;28;20050;-65
2022/01/28 13:33:37;;;;;;;5.65;2.20;;;;;;;;;;5051350;28;20048;-64
2022/01/28 13:36:08;;;;;;;4.78;2.15;;;;;;;;;;5069915;28;20046;-65
2022/01/28 13:38:40;;;;;;;6.07;2.60;;;;;;;;;;5070058;28;20053;-65
2022/01/28 13:41:24;;;;;;;5.38;2.67;;;;;;;;;;5068854;28;20052;-66
2022/01/28 13:43:59;;;;;;;6.38;1.95;;;;;;;;;;5069950;28;20587;-66
2022/01/28 13:46:34;;;;;;;7.97;4.00;;;;;;;;;;5053545;28;20064;-66
2022/01/28 13:49:14;;;;;;;8.13;1.90;;;;;;;;;;5069685;28;20408;-65
2022/01/28 13:51:45;;;;;;;6.15;2.45;;;;;;;;;;5069891;28;20060;-66
2022/01/28 13:54:18;;;;;;;5.85;4.28;;;;;;;;;;5029664;28;20041;-66
2022/01/28 13:56:48;;;;;;;7.05;2.70;;;;;;;;;;5029846;28;21043;-67
2022/01/28 13:59:25;;;;;;;4.05;2.22;;;;;;;;;;4989814;28;20054;-67
2022/01/28 14:01:59;;;;;;;5.47;2.40;;;;;;;;;;4974354;28;20061;-67
2022/01/28 14:04:35;;;;;;;5.88;2.30;;;;;;;;;;5022879;28;20060;-67
2022/01/28 14:07:13;;;;;;;6.38;2.90;;;;;;;;;;5029544;28;20058;-67
2022/01/28 14:09:57;;;;;;;3.88;2.42;;;;;;;;;;5013524;28;20476;-67
2022/01/28 14:12:43;;;;;;;3.05;1.30;;;;;;;;;;5029643;28;20076;-66
2022/01/28 14:15:33;;;;;;;4.20;1.55;;;;;;;;;;5029767;28;20408;-67
2022/01/28 14:18:05;;;;;;;3.80;0.90;;;;;;;;;;5029364;28;20064;-67
2022/01/28 14:20:36;;;;;;;2.88;0.93;;;;;;;;;;5029396;28;20049;-67
2022/01/28 14:23:07;;;;;;;2.03;1.10;;;;;;;;;;5029016;28;20061;-67
2022/01/28 14:25:38;;;;;;;3.25;0.98;;;;;;;;;;5028967;28;20069;-67
2022/01/28 14:31:05;;;;;;;1.50;0.70;;;;;;;;;;4997699;28;20046;-66
2022/01/28 14:33:37;;;;;;;2.63;0.80;;;;;;;;;;5069003;28;20052;-68
2022/01/28 14:36:07;;;;;;;1.90;0.70;;;;;;;;;;5072391;28;20056;-67
2022/01/28 14:38:50;;;;;;;2.85;0.90;;;;;;;;;;5091538;28;20512;-66
2022/01/28 14:41:20;;;;;;;1.35;0.60;;;;;;;;;;5091391;28;20040;-66
2022/01/28 14:43:50;;;;;;;3.83;0.70;;;;;;;;;;5091312;28;20044;-67
2022/01/28 14:46:21;;;;;;;1.40;0.52;;;;;;;;;;5091451;28;20044;-67
2022/01/28 14:48:54;;;;;;;2.88;0.60;;;;;;;;;;5072208;28;20522;-67
2022/01/28 14:51:26;;;;;;;8.18;0.90;;;;;;;;;;5088887;28;20412;-68
2022/01/28 14:53:57;;;;;;;2.33;1.23;;;;;;;;;;5091256;28;20403;-67
2022/01/28 14:56:28;;;;;;;18.20;5.03;;;;;;;;;;5091021;28;20055;-65
2022/01/28 14:59:00;;;;;;;17.17;7.30;;;;;;;;;;5091321;28;20083;-67
2022/01/28 15:01:31;;;;;;;4.95;1.35;;;;;;;;;;5091005;28;20047;-67
2022/01/28 15:04:02;;;;;;;11.30;4.70;;;;;;;;;;5072278;28;20395;-66
2022/01/28 15:06:33;;;;;;;16.30;6.70;;;;;;;;;;5055980;28;20048;-67
2022/01/28 15:09:04;;;;;;;31.58;12.35;;;;;;;;;;5088855;28;20048;-65
2022/01/28 15:11:45;;;;;;;7.15;1.40;;;;;;;;;;5088863;28;20078;-67
2022/01/28 15:14:24;;;;;;;7.22;2.95;;;;;;;;;;4995656;28;20190;-66
2022/01/28 15:16:56;;;;;;;2.85;1.00;;;;;;;;;;5088669;28;20052;-67
2022/01/28 15:19:26;;;;;;;4.43;1.40;;;;;;;;;;5048509;28;20053;-68
2022/01/28 15:21:56;;;;;;;7.22;1.70;;;;;;;;;;5008099;28;20454;-67
2022/01/28 15:24:28;;;;;;;5.55;1.50;;;;;;;;;;5009032;28;20082;-66
2022/01/28 15:26:59;;;;;;;5.28;1.90;;;;;;;;;;5008588;28;20526;-66
2022/01/28 15:37:40;;;;;;;4.47;2.10;;;;;;;;;;4989317;28;20388;-66
2022/01/28 15:40:11;;;;;;;4.03;0.90;;;;;;;;;;4924390;28;20530;-66
2022/01/28 15:42:41;;;;;;;3.80;0.85;;;;;;;;;;4910394;28;20069;-67
2022/01/28 15:45:11;;;;;;;3.35;0.70;;;;;;;;;;4969408;28;20047;-66
2022/01/28 15:47:41;;;;;;;2.20;0.80;;;;;;;;;;4969697;28;20518;-66
2022/01/28 15:50:13;;;;;;;2.30;0.95;;;;;;;;;;4969692;28;20055;-66
2022/01/28 15:52:44;;;;;;;2.55;0.90;;;;;;;;;;4969441;28;20874;-67
2022/01/28 15:55:16;;;;;;;3.42;0.70;;;;;;;;;;4969444;28;20051;-66
2022/01/28 15:57:47;;;;;;;2.83;0.90;;;;;;;;;;4971879;28;20050;-66
2022/01/28 16:00:17;;;;;;;2.22;0.90;;;;;;;;;;5008369;28;20426;-67
2022/01/28 16:02:48;;;;;;;4.00;1.65;;;;;;;;;;5028090;28;20530;-66
2022/01/28 16:05:19;;;;;;;2.60;0.90;;;;;;;;;;5031242;28;20517;-66
2022/01/28 16:07:50;;;;;;;2.88;0.85;;;;;;;;;;5047211;28;20448;-67
2022/01/28 16:10:30;;;;;;;3.72;1.70;;;;;;;;;;5012062;28;20529;-67
2022/01/28 16:13:03;;;;;;;4.20;1.80;;;;;;;;;;5011972;28;20528;-67
2022/01/28 16:18:07;;;;;;;6.28;3.30;;;;;;;;;;4940752;28;20073;-66
2022/01/28 16:20:38;;;;;;;2.15;1.15;;;;;;;;;;4941818;28;20526;-67
2022/01/28 16:23:09;;;;;;;4.22;1.23;;;;;;;;;;4972904;28;20055;-68
2022/01/28 16:25:39;;;;;;;2.13;0.80;;;;;;;;;;4972588;28;20055;-66
2022/01/28 16:28:09;;;;;;;2.85;0.82;;;;;;;;;;4940566;28;20428;-67
2022/01/28 16:30:39;;;;;;;4.35;1.30;;;;;;;;;;4953385;28;20059;-67
2022/01/28 16:33:10;;;;;;;3.95;1.08;;;;;;;;;;4953519;28;20059;-67
2022/01/28 16:35:41;;;;;;;2.53;0.95;;;;;;;;;;4953179;28;20059;-67
2022/01/28 16:38:11;;;;;;;5.93;1.48;;;;;;;;;;4953416;28;20051;-66
2022/01/28 16:40:45;;;;;;;3.80;1.00;;;;;;;;;;4953424;28;20430;-67
2022/01/28 16:43:19;;;;;;;2.83;0.90;;;;;;;;;;4953086;28;20055;-66
2022/01/28 16:45:53;;;;;;;4.03;0.93;;;;;;;;;;4933503;28;20533;-68
2022/01/28 16:48:24;;;;;;;2.05;0.80;;;;;;;;;;4972654;28;20054;-68
2022/01/28 16:50:54;;;;;;;2.33;0.75;;;;;;;;;;4995682;28;20058;-68
2022/01/28 16:53:25;;;;;;;3.47;0.82;;;;;;;;;;5026424;28;20456;-67
2022/01/28 16:55:55;;;;;;;5.22;1.48;;;;;;;;;;5034791;28;20065;-67